Time;durP1;ratioP1;P1;durP2;ratioP2;P2;SDS_P1;SDS_P2;PMS_P1;PMS_P2;Temp;Humidity;BMP_temperature;BMP_pressure;BME280_temperature;BME280_humidity;BME280_pressure;Samples;Min_cycle;Max_cycle;Signal;HPM_P1;HPM_P2
2022/12/28 00:00:05;;;;;;;16.58;5.85;;;;;;;;;;7386666;19;19995;-74
2022/12/28 00:02:31;;;;;;;19.10;6.38;;;;;;;;;;7385131;19;20307;-74
2022/12/28 00:04:56;;;;;;;13.82;6.75;;;;;;;;;;7388738;19;20019;-74
2022/12/28 00:07:21;;;;;;;16.98;6.50;;;;;;;;;;7389475;19;20313;-73
2022/12/28 00:09:47;;;;;;;14.85;6.15;;;;;;;;;;7389393;19;19991;-74
2022/12/28 00:12:12;;;;;;;15.90;6.35;;;;;;;;;;7389154;19;19998;-75
2022/12/28 00:14:37;;;;;;;17.63;6.88;;;;;;;;;;7389032;19;20011;-75
2022/12/28 00:17:03;;;;;;;13.95;5.75;;;;;;;;;;7390459;19;20490;-75
2022/12/28 00:19:28;;;;;;;12.75;6.40;;;;;;;;;;7388416;19;20033;-74
2022/12/28 00:21:53;;;;;;;13.50;5.78;;;;;;;;;;7389290;19;19995;-75
2022/12/28 00:24:24;;;;;;;9.30;4.93;;;;;;;;;;7388973;19;20526;-75
2022/12/28 00:26:50;;;;;;;13.43;5.63;;;;;;;;;;7390159;19;19997;-74
2022/12/28 00:29:16;;;;;;;14.38;6.03;;;;;;;;;;7390016;19;20074;-75
2022/12/28 00:31:42;;;;;;;12.77;6.03;;;;;;;;;;7389167;19;20003;-75
2022/12/28 00:34:07;;;;;;;18.15;5.70;;;;;;;;;;7388532;19;19994;-74
2022/12/28 00:36:32;;;;;;;12.35;6.00;;;;;;;;;;7389869;19;20025;-75
2022/12/28 00:38:58;;;;;;;13.18;5.50;;;;;;;;;;7388505;19;20005;-74
2022/12/28 00:41:23;;;;;;;12.38;6.43;;;;;;;;;;7389367;19;20633;-74
2022/12/28 00:43:49;;;;;;;12.55;6.00;;;;;;;;;;7395693;19;19994;-74
2022/12/28 00:46:16;;;;;;;11.63;6.60;;;;;;;;;;7396236;19;19994;-73
2022/12/28 00:48:42;;;;;;;14.70;7.05;;;;;;;;;;7396917;19;19991;-74
2022/12/28 00:51:11;;;;;;;16.80;6.38;;;;;;;;;;7396277;19;20028;-75
2022/12/28 00:53:36;;;;;;;15.40;6.57;;;;;;;;;;7394382;19;20027;-73
2022/12/28 00:56:13;;;;;;;11.43;5.85;;;;;;;;;;7398574;19;19995;-74
2022/12/28 00:58:39;;;;;;;17.38;6.45;;;;;;;;;;7398611;19;20007;-74
2022/12/28 01:01:12;;;;;;;13.75;6.68;;;;;;;;;;7396050;19;20006;-73
2022/12/28 01:03:37;;;;;;;11.45;6.15;;;;;;;;;;7395296;19;20002;-74
2022/12/28 01:06:06;;;;;;;13.38;6.22;;;;;;;;;;7396670;19;20029;-74
2022/12/28 01:08:32;;;;;;;18.88;7.32;;;;;;;;;;7395281;19;20098;-74
2022/12/28 01:10:57;;;;;;;14.15;5.82;;;;;;;;;;7396005;19;20414;-73
2022/12/28 01:13:23;;;;;;;12.85;6.03;;;;;;;;;;7399493;19;20001;-74
2022/12/28 01:15:48;;;;;;;18.70;6.60;;;;;;;;;;7395399;19;20077;-74
2022/12/28 01:18:14;;;;;;;13.70;6.15;;;;;;;;;;7396400;19;20058;-74
2022/12/28 01:20:39;;;;;;;9.93;5.65;;;;;;;;;;7397447;19;20006;-74
2022/12/28 01:23:05;;;;;;;9.63;5.57;;;;;;;;;;7395431;19;20085;-74
2022/12/28 01:25:32;;;;;;;12.88;5.88;;;;;;;;;;7395934;19;20584;-75
2022/12/28 01:27:57;;;;;;;11.30;5.38;;;;;;;;;;7396519;19;20027;-75
2022/12/28 01:30:22;;;;;;;13.25;6.30;;;;;;;;;;7396315;19;20471;-75
2022/12/28 01:32:48;;;;;;;12.43;6.15;;;;;;;;;;7394418;19;20026;-75
2022/12/28 01:35:13;;;;;;;11.82;6.05;;;;;;;;;;7395689;19;20014;-75
2022/12/28 01:37:38;;;;;;;14.15;6.25;;;;;;;;;;7393344;19;20002;-75
2022/12/28 01:40:04;;;;;;;11.95;6.22;;;;;;;;;;7395330;19;20077;-75
2022/12/28 01:42:29;;;;;;;13.95;6.40;;;;;;;;;;7393280;19;20396;-74
2022/12/28 01:44:55;;;;;;;11.73;7.13;;;;;;;;;;7392894;19;20057;-73
2022/12/28 01:47:27;;;;;;;11.70;6.45;;;;;;;;;;7395054;19;20070;-74
2022/12/28 01:49:55;;;;;;;12.35;6.68;;;;;;;;;;7395177;19;20003;-74
2022/12/28 01:52:25;;;;;;;12.27;6.90;;;;;;;;;;7392441;19;20013;-74
2022/12/28 01:55:00;;;;;;;13.45;6.20;;;;;;;;;;7391563;19;20005;-73
2022/12/28 01:57:30;;;;;;;18.15;7.43;;;;;;;;;;7394588;19;20031;-75
2022/12/28 02:00:07;;;;;;;15.80;6.65;;;;;;;;;;7394986;19;20409;-75
2022/12/28 02:02:34;;;;;;;14.10;6.95;;;;;;;;;;7391735;19;19999;-73
2022/12/28 02:05:00;;;;;;;15.85;7.05;;;;;;;;;;7393336;19;20006;-73
2022/12/28 02:07:54;;;;;;;15.55;7.80;;;;;;;;;;7395454;19;20009;-74
2022/12/28 02:10:22;;;;;;;15.32;6.38;;;;;;;;;;7396923;19;20009;-74
2022/12/28 02:12:48;;;;;;;13.88;7.38;;;;;;;;;;7394569;19;19998;-73
2022/12/28 02:15:13;;;;;;;16.77;7.38;;;;;;;;;;7396798;19;20002;-74
2022/12/28 02:17:39;;;;;;;14.85;7.47;;;;;;;;;;7394203;19;19999;-73
2022/12/28 02:20:05;;;;;;;12.93;7.40;;;;;;;;;;7394159;19;20003;-73
2022/12/28 02:22:40;;;;;;;17.63;8.30;;;;;;;;;;7392060;19;20066;-73
2022/12/28 02:25:27;;;;;;;15.45;6.68;;;;;;;;;;7392883;19;20007;-74
2022/12/28 02:28:20;;;;;;;15.02;7.32;;;;;;;;;;7396907;19;20486;-75
2022/12/28 02:30:55;;;;;;;12.93;6.72;;;;;;;;;;7393654;19;19999;-74
2022/12/28 02:33:47;;;;;;;15.07;7.38;;;;;;;;;;7392536;19;20006;-74
2022/12/28 02:36:18;;;;;;;15.30;7.07;;;;;;;;;;7394856;19;20037;-73
2022/12/28 02:39:10;;;;;;;12.40;6.38;;;;;;;;;;7392810;19;20336;-74
2022/12/28 02:41:38;;;;;;;10.90;6.05;;;;;;;;;;7393971;19;20006;-75
2022/12/28 02:44:04;;;;;;;13.25;7.00;;;;;;;;;;7393290;19;19999;-72
2022/12/28 02:52:40;;;;;;;12.55;6.88;;;;;;;;;;7392419;19;20017;-74
2022/12/28 02:58:31;;;;;;;13.00;6.82;;;;;;;;;;7392930;19;20011;-74
2022/12/28 03:01:20;;;;;;;19.02;6.57;;;;;;;;;;7392424;19;20002;-74
2022/12/28 03:04:10;;;;;;;13.18;6.60;;;;;;;;;;7391463;19;20058;-73
2022/12/28 03:10:19;;;;;;;10.63;6.32;;;;;;;;;;7394598;19;20013;-74
2022/12/28 03:13:03;;;;;;;13.93;7.10;;;;;;;;;;7399623;19;20007;-73
2022/12/28 03:15:36;;;;;;;13.65;7.22;;;;;;;;;;7407559;19;20007;-74
2022/12/28 03:32:01;;;;;;;14.13;7.15;;;;;;;;;;7391351;19;20015;-74
2022/12/28 03:34:26;;;;;;;11.00;6.30;;;;;;;;;;7390255;19;20011;-74
2022/12/28 03:37:07;;;;;;;15.32;7.75;;;;;;;;;;7390680;19;20456;-75
2022/12/28 03:39:41;;;;;;;11.82;6.78;;;;;;;;;;7390482;19;20009;-73
2022/12/28 03:45:20;;;;;;;13.15;6.88;;;;;;;;;;7391817;19;20018;-75
2022/12/28 03:47:49;;;;;;;16.17;7.50;;;;;;;;;;7391673;19;20006;-74
2022/12/28 03:50:16;;;;;;;13.70;7.82;;;;;;;;;;7389998;19;20023;-74
2022/12/28 03:52:41;;;;;;;13.35;7.25;;;;;;;;;;7388396;19;20006;-74
2022/12/28 03:55:07;;;;;;;20.27;6.90;;;;;;;;;;7391529;19;19995;-74
2022/12/28 03:57:33;;;;;;;16.77;6.72;;;;;;;;;;7390695;19;20098;-74
2022/12/28 03:59:58;;;;;;;11.88;7.13;;;;;;;;;;7389557;19;20058;-74
2022/12/28 04:02:23;;;;;;;13.85;6.90;;;;;;;;;;7389350;19;20478;-74
2022/12/28 04:04:49;;;;;;;13.65;7.40;;;;;;;;;;7389211;19;20062;-74
2022/12/28 04:07:14;;;;;;;14.40;7.25;;;;;;;;;;7390856;19;20020;-74
2022/12/28 04:09:39;;;;;;;14.57;7.43;;;;;;;;;;7390757;19;20033;-73
2022/12/28 04:12:05;;;;;;;11.20;6.38;;;;;;;;;;7389233;19;20005;-75
2022/12/28 04:14:30;;;;;;;15.23;6.78;;;;;;;;;;7390018;19;19998;-74
2022/12/28 04:16:56;;;;;;;14.18;6.45;;;;;;;;;;7392881;19;20002;-75
2022/12/28 04:19:21;;;;;;;14.35;7.32;;;;;;;;;;7395981;19;20042;-74
2022/12/28 04:21:46;;;;;;;14.00;6.82;;;;;;;;;;7396828;19;20038;-74
2022/12/28 04:24:12;;;;;;;13.50;7.15;;;;;;;;;;7395290;19;20029;-75
2022/12/28 04:26:37;;;;;;;11.48;6.28;;;;;;;;;;7399284;19;20013;-73
2022/12/28 04:29:02;;;;;;;12.18;6.88;;;;;;;;;;7399766;19;19995;-74
2022/12/28 04:31:29;;;;;;;16.27;7.10;;;;;;;;;;7398898;19;19999;-74
2022/12/28 04:33:56;;;;;;;16.98;6.60;;;;;;;;;;7399548;19;20520;-74
2022/12/28 04:36:21;;;;;;;10.35;5.97;;;;;;;;;;7402169;19;20058;-74
2022/12/28 04:38:46;;;;;;;14.02;6.70;;;;;;;;;;7396332;19;20008;-74
2022/12/28 04:41:12;;;;;;;11.88;7.18;;;;;;;;;;7396397;19;19995;-75
2022/12/28 04:43:38;;;;;;;14.45;6.68;;;;;;;;;;7395941;19;19995;-74
2022/12/28 04:46:08;;;;;;;10.55;6.43;;;;;;;;;;7397209;19;20002;-74
2022/12/28 04:48:33;;;;;;;14.45;6.63;;;;;;;;;;7397550;19;20015;-74
2022/12/28 04:51:05;;;;;;;15.02;6.35;;;;;;;;;;7396578;19;20448;-74
2022/12/28 04:53:30;;;;;;;11.30;7.03;;;;;;;;;;7395707;19;20058;-74
2022/12/28 04:56:02;;;;;;;13.65;6.63;;;;;;;;;;7396739;19;20015;-73
2022/12/28 04:58:27;;;;;;;14.18;7.20;;;;;;;;;;7395887;19;19991;-75
2022/12/28 05:00:53;;;;;;;11.50;6.20;;;;;;;;;;7396728;19;20019;-74
2022/12/28 05:03:18;;;;;;;12.25;5.78;;;;;;;;;;7394073;19;19987;-74
2022/12/28 05:05:43;;;;;;;10.93;5.32;;;;;;;;;;7401402;19;20058;-75
2022/12/28 05:08:08;;;;;;;10.65;5.50;;;;;;;;;;7396467;19;19997;-74
2022/12/28 05:10:34;;;;;;;10.50;5.20;;;;;;;;;;7396246;19;20058;-74
2022/12/28 05:12:59;;;;;;;11.52;6.10;;;;;;;;;;7392837;19;19987;-74
2022/12/28 05:15:25;;;;;;;11.25;5.55;;;;;;;;;;7396365;19;19994;-75
2022/12/28 05:17:50;;;;;;;12.82;5.95;;;;;;;;;;7394246;19;20003;-73
2022/12/28 05:20:18;;;;;;;11.43;5.40;;;;;;;;;;7396479;19;19991;-74
2022/12/28 05:22:46;;;;;;;9.48;4.80;;;;;;;;;;7392610;19;20417;-74
2022/12/28 05:25:12;;;;;;;11.18;5.35;;;;;;;;;;7396354;19;19998;-73
2022/12/28 05:27:37;;;;;;;12.68;5.50;;;;;;;;;;7396109;19;20035;-73
2022/12/28 05:30:06;;;;;;;11.55;6.50;;;;;;;;;;7395228;19;20698;-74
2022/12/28 05:32:34;;;;;;;10.63;4.88;;;;;;;;;;7394822;19;20018;-74
2022/12/28 05:34:59;;;;;;;9.73;4.40;;;;;;;;;;7399503;19;20018;-74
2022/12/28 05:37:25;;;;;;;12.63;4.97;;;;;;;;;;7396005;19;20029;-74
2022/12/28 05:39:51;;;;;;;6.72;3.47;;;;;;;;;;7395690;19;20508;-73
2022/12/28 05:42:16;;;;;;;12.85;5.57;;;;;;;;;;7392250;19;20002;-74
2022/12/28 05:44:41;;;;;;;12.85;4.78;;;;;;;;;;7394022;19;20062;-74
2022/12/28 05:47:07;;;;;;;12.15;4.90;;;;;;;;;;7395547;19;20001;-75
2022/12/28 05:49:32;;;;;;;10.07;5.28;;;;;;;;;;7395445;19;19994;-74
2022/12/28 05:51:57;;;;;;;12.90;4.68;;;;;;;;;;7393691;19;20001;-74
2022/12/28 05:54:22;;;;;;;12.35;5.28;;;;;;;;;;7393044;19;19986;-74
2022/12/28 05:56:51;;;;;;;10.15;4.82;;;;;;;;;;7394815;19;20019;-75
2022/12/28 05:59:16;;;;;;;6.55;4.18;;;;;;;;;;7393549;19;20005;-74
2022/12/28 06:01:46;;;;;;;9.05;4.88;;;;;;;;;;7394837;19;19999;-74
2022/12/28 06:04:16;;;;;;;11.43;5.35;;;;;;;;;;7394232;19;20429;-72
2022/12/28 06:06:43;;;;;;;10.25;4.30;;;;;;;;;;7395070;19;19999;-74
2022/12/28 06:09:08;;;;;;;10.82;4.70;;;;;;;;;;7394959;19;19990;-74
2022/12/28 06:11:34;;;;;;;9.05;4.82;;;;;;;;;;7396596;19;20471;-74
2022/12/28 06:14:00;;;;;;;12.00;5.90;;;;;;;;;;7394917;19;19998;-75
2022/12/28 06:16:30;;;;;;;9.90;3.92;;;;;;;;;;7396571;19;20336;-74
2022/12/28 06:18:56;;;;;;;9.07;4.53;;;;;;;;;;7396381;19;19999;-73
2022/12/28 06:21:24;;;;;;;9.65;4.25;;;;;;;;;;7393688;19;20460;-74
2022/12/28 06:23:49;;;;;;;14.45;9.40;;;;;;;;;;7395563;19;20389;-75
2022/12/28 06:26:17;;;;;;;7.80;4.43;;;;;;;;;;7396094;19;19990;-74
2022/12/28 06:28:44;;;;;;;12.10;4.53;;;;;;;;;;7394851;19;20001;-74
2022/12/28 06:31:11;;;;;;;8.65;4.63;;;;;;;;;;7394608;19;20069;-73
2022/12/28 06:33:36;;;;;;;7.65;4.20;;;;;;;;;;7375688;19;20014;-74
2022/12/28 06:36:02;;;;;;;13.20;6.57;;;;;;;;;;7387780;19;19994;-76
2022/12/28 06:38:31;;;;;;;16.48;6.13;;;;;;;;;;7386345;19;20554;-75
2022/12/28 06:41:02;;;;;;;11.57;5.65;;;;;;;;;;7387583;19;20387;-74
2022/12/28 06:43:33;;;;;;;11.10;4.60;;;;;;;;;;7384826;19;20333;-75
2022/12/28 06:45:59;;;;;;;8.60;4.93;;;;;;;;;;7388164;19;20006;-76
2022/12/28 06:48:25;;;;;;;10.52;4.65;;;;;;;;;;7389805;19;20006;-73
2022/12/28 06:51:01;;;;;;;9.05;3.60;;;;;;;;;;7388830;19;20010;-74
2022/12/28 06:53:29;;;;;;;8.48;3.78;;;;;;;;;;7388513;19;20479;-73
2022/12/28 06:55:59;;;;;;;6.75;3.75;;;;;;;;;;7386435;19;20226;-75
2022/12/28 06:58:26;;;;;;;10.07;4.18;;;;;;;;;;7388274;19;20017;-75
2022/12/28 07:00:52;;;;;;;13.52;4.05;;;;;;;;;;7389228;19;20019;-74
2022/12/28 07:03:17;;;;;;;7.47;3.70;;;;;;;;;;7387958;19;20018;-74
2022/12/28 07:05:43;;;;;;;8.80;3.95;;;;;;;;;;7387166;19;20096;-75
2022/12/28 07:08:08;;;;;;;5.20;2.92;;;;;;;;;;7391823;19;20319;-76
2022/12/28 07:10:34;;;;;;;7.03;3.45;;;;;;;;;;7390590;19;19998;-75
2022/12/28 07:12:59;;;;;;;6.85;3.70;;;;;;;;;;7389039;19;19999;-74
2022/12/28 07:15:25;;;;;;;8.13;3.33;;;;;;;;;;7388955;19;19998;-74
2022/12/28 07:17:50;;;;;;;8.60;3.20;;;;;;;;;;7387737;19;20015;-74
2022/12/28 07:20:16;;;;;;;8.60;3.63;;;;;;;;;;7391167;19;20002;-73
2022/12/28 07:22:41;;;;;;;7.20;3.47;;;;;;;;;;7385687;19;20002;-74
2022/12/28 07:25:07;;;;;;;6.53;3.85;;;;;;;;;;7389609;19;20003;-75
2022/12/28 07:27:34;;;;;;;7.78;3.88;;;;;;;;;;7390373;19;19995;-74
2022/12/28 07:30:00;;;;;;;8.07;3.50;;;;;;;;;;7388653;19;20019;-74
2022/12/28 07:32:25;;;;;;;6.70;3.35;;;;;;;;;;7386905;19;19991;-73
2022/12/28 07:34:50;;;;;;;8.48;3.47;;;;;;;;;;7387946;19;19994;-75
2022/12/28 07:37:16;;;;;;;9.73;3.10;;;;;;;;;;7387719;19;20084;-73
2022/12/28 07:39:41;;;;;;;7.07;3.30;;;;;;;;;;7388566;19;19995;-74
2022/12/28 07:42:09;;;;;;;5.10;2.83;;;;;;;;;;7382743;19;19998;-73
2022/12/28 07:44:35;;;;;;;11.13;9.90;;;;;;;;;;7389221;19;20010;-72
2022/12/28 07:47:00;;;;;;;7.07;3.22;;;;;;;;;;7384313;19;20014;-74
2022/12/28 07:49:25;;;;;;;8.02;2.97;;;;;;;;;;7390543;19;20001;-75
2022/12/28 07:51:51;;;;;;;6.95;2.88;;;;;;;;;;7383059;19;20019;-74
2022/12/28 07:54:16;;;;;;;10.13;4.50;;;;;;;;;;7387808;19;20002;-72
2022/12/28 07:56:41;;;;;;;8.25;3.17;;;;;;;;;;7388074;19;20003;-76
2022/12/28 07:59:12;;;;;;;18.58;13.85;;;;;;;;;;7388293;19;20001;-74
2022/12/28 08:01:37;;;;;;;8.23;3.53;;;;;;;;;;7389536;19;20006;-72
2022/12/28 08:04:06;;;;;;;7.57;3.50;;;;;;;;;;7385497;19;20023;-72
2022/12/28 08:06:34;;;;;;;8.35;3.17;;;;;;;;;;7390434;19;20027;-70
2022/12/28 08:09:01;;;;;;;7.43;3.33;;;;;;;;;;7387352;19;20005;-72
2022/12/28 08:11:29;;;;;;;6.18;3.08;;;;;;;;;;7386507;19;20022;-70
2022/12/28 08:13:55;;;;;;;8.00;3.22;;;;;;;;;;7383584;19;20508;-71
2022/12/28 08:16:25;;;;;;;7.47;3.65;;;;;;;;;;7387670;19;20070;-69
2022/12/28 08:18:51;;;;;;;7.10;3.72;;;;;;;;;;7381983;19;20476;-72
2022/12/28 08:21:22;;;;;;;6.80;3.50;;;;;;;;;;7388072;19;20005;-72
2022/12/28 08:23:51;;;;;;;8.05;3.72;;;;;;;;;;7385086;19;19999;-72
2022/12/28 08:26:19;;;;;;;10.50;3.45;;;;;;;;;;7388801;19;19999;-71
2022/12/28 08:28:46;;;;;;;6.10;3.20;;;;;;;;;;7387712;19;20006;-72
2022/12/28 08:31:18;;;;;;;9.55;3.30;;;;;;;;;;7387587;19;20007;-74
2022/12/28 08:33:43;;;;;;;;;;;;;;;;;;7384857;19;20570;-74
2022/12/28 08:36:09;;;;;;;7.00;3.22;;;;;;;;;;7385390;19;19997;-74
2022/12/28 08:38:37;;;;;;;6.55;3.30;;;;;;;;;;7386598;19;20002;-75
2022/12/28 08:41:04;;;;;;;6.22;3.10;;;;;;;;;;7385694;19;20010;-72
2022/12/28 08:43:31;;;;;;;6.80;3.42;;;;;;;;;;7385140;19;20019;-74
2022/12/28 08:46:01;;;;;;;9.48;3.20;;;;;;;;;;7385261;19;19990;-71
2022/12/28 08:48:27;;;;;;;10.55;3.35;;;;;;;;;;7387457;19;20002;-71
2022/12/28 08:50:53;;;;;;;5.07;2.63;;;;;;;;;;7382347;19;20407;-74
2022/12/28 08:53:18;;;;;;;8.30;3.05;;;;;;;;;;7387329;19;20016;-73
2022/12/28 08:55:44;;;;;;;7.25;3.45;;;;;;;;;;7386838;19;19999;-72
2022/12/28 08:58:09;;;;;;;5.53;2.80;;;;;;;;;;7386540;19;20451;-73
2022/12/28 09:00:34;;;;;;;5.80;2.72;;;;;;;;;;7387246;19;20003;-74
2022/12/28 09:03:00;;;;;;;10.23;2.90;;;;;;;;;;7386461;19;20013;-74
2022/12/28 09:05:25;;;;;;;5.93;2.70;;;;;;;;;;7391669;19;20002;-74
2022/12/28 09:07:51;;;;;;;4.25;2.53;;;;;;;;;;7394703;19;20001;-74
2022/12/28 09:10:16;;;;;;;7.47;2.70;;;;;;;;;;7393539;19;20019;-75
2022/12/28 09:12:42;;;;;;;4.72;2.50;;;;;;;;;;7389265;19;20003;-74
2022/12/28 09:15:08;;;;;;;8.25;2.65;;;;;;;;;;7391382;19;20013;-74
2022/12/28 09:17:33;;;;;;;5.03;2.47;;;;;;;;;;7393231;19;19999;-75
2022/12/28 09:19:58;;;;;;;6.07;2.67;;;;;;;;;;7391761;19;20017;-73
2022/12/28 09:22:24;;;;;;;4.70;2.40;;;;;;;;;;7392957;19;20232;-74
2022/12/28 09:24:49;;;;;;;4.68;2.35;;;;;;;;;;7394061;19;20094;-73
2022/12/28 09:27:14;;;;;;;4.43;2.20;;;;;;;;;;7393656;19;20014;-75
2022/12/28 09:29:40;;;;;;;5.97;2.78;;;;;;;;;;7395854;19;20006;-73
2022/12/28 09:32:05;;;;;;;5.75;2.67;;;;;;;;;;7388733;19;20527;-73
2022/12/28 09:34:31;;;;;;;6.97;2.58;;;;;;;;;;7392237;19;19999;-74
2022/12/28 09:36:56;;;;;;;5.38;2.10;;;;;;;;;;7391327;19;20003;-73
2022/12/28 09:39:23;;;;;;;8.45;2.38;;;;;;;;;;7391333;19;20009;-72
2022/12/28 09:41:53;;;;;;;7.57;2.58;;;;;;;;;;7393265;19;20057;-71
2022/12/28 09:44:37;;;;;;;8.90;2.60;;;;;;;;;;7394110;19;20027;-74
2022/12/28 09:47:16;;;;;;;6.63;2.50;;;;;;;;;;7391685;19;20010;-73
2022/12/28 09:49:45;;;;;;;5.05;2.28;;;;;;;;;;7393760;19;20002;-72
2022/12/28 09:52:13;;;;;;;4.78;2.58;;;;;;;;;;7393589;19;19999;-72
2022/12/28 09:54:40;;;;;;;5.03;2.55;;;;;;;;;;7391379;19;20020;-74
2022/12/28 09:57:16;;;;;;;9.18;2.80;;;;;;;;;;7393797;19;20096;-73
2022/12/28 09:59:44;;;;;;;6.00;2.58;;;;;;;;;;7390892;19;20013;-75
2022/12/28 10:02:19;;;;;;;5.03;2.00;;;;;;;;;;7391929;19;20101;-73
2022/12/28 10:04:47;;;;;;;5.20;2.15;;;;;;;;;;7390599;19;20464;-73
2022/12/28 10:07:13;;;;;;;3.72;1.85;;;;;;;;;;7395334;19;20336;-75
2022/12/28 10:09:38;;;;;;;4.95;2.20;;;;;;;;;;7393978;19;20050;-73
2022/12/28 10:12:16;;;;;;;7.05;2.20;;;;;;;;;;7391720;19;20512;-74
2022/12/28 10:14:44;;;;;;;2.35;1.70;;;;;;;;;;7388160;19;20476;-76
2022/12/28 10:17:16;;;;;;;5.53;1.92;;;;;;;;;;7392760;19;20475;-75
2022/12/28 10:19:45;;;;;;;4.25;2.05;;;;;;;;;;7389899;19;20005;-74
2022/12/28 10:22:15;;;;;;;5.43;2.13;;;;;;;;;;7392329;19;20002;-75
2022/12/28 10:24:41;;;;;;;5.43;2.28;;;;;;;;;;7389224;19;20031;-74
2022/12/28 10:27:21;;;;;;;5.38;2.13;;;;;;;;;;7392080;19;20880;-74
2022/12/28 10:29:49;;;;;;;4.63;1.80;;;;;;;;;;7389505;19;20002;-75
2022/12/28 10:32:14;;;;;;;4.97;2.17;;;;;;;;;;7392027;19;20005;-76
2022/12/28 10:34:57;;;;;;;4.57;2.30;;;;;;;;;;7390497;19;19991;-74
2022/12/28 10:37:25;;;;;;;6.10;2.05;;;;;;;;;;7393024;19;20023;-75
2022/12/28 10:39:56;;;;;;;7.35;2.08;;;;;;;;;;7389828;19;20011;-75
2022/12/28 10:42:26;;;;;;;4.40;2.40;;;;;;;;;;7390786;19;20090;-76
2022/12/28 10:44:56;;;;;;;6.07;2.35;;;;;;;;;;7389139;19;20356;-75
2022/12/28 10:47:29;;;;;;;3.90;2.45;;;;;;;;;;7390836;19;20468;-76
2022/12/28 10:49:55;;;;;;;5.25;2.42;;;;;;;;;;7390419;19;20375;-73
2022/12/28 10:52:20;;;;;;;6.15;2.78;;;;;;;;;;7386472;19;20023;-76
2022/12/28 10:54:47;;;;;;;5.97;2.50;;;;;;;;;;7388993;19;20361;-75
2022/12/28 10:57:23;;;;;;;7.53;2.60;;;;;;;;;;7394311;19;20468;-75
2022/12/28 10:59:49;;;;;;;11.02;2.33;;;;;;;;;;7389327;19;20002;-75
2022/12/28 11:02:31;;;;;;;5.53;2.35;;;;;;;;;;7390662;19;20005;-74
2022/12/28 11:04:56;;;;;;;3.92;1.98;;;;;;;;;;7384669;19;19999;-75
2022/12/28 11:07:32;;;;;;;4.80;2.17;;;;;;;;;;7383756;19;20055;-75
2022/12/28 11:10:25;;;;;;;5.25;2.50;;;;;;;;;;7383067;19;20485;-76
2022/12/28 11:12:54;;;;;;;11.07;2.83;;;;;;;;;;7379481;19;20027;-76
2022/12/28 11:15:22;;;;;;;4.57;2.53;;;;;;;;;;7385654;19;20500;-75
2022/12/28 11:18:14;;;;;;;5.85;2.65;;;;;;;;;;7388588;19;20436;-74
2022/12/28 11:20:43;;;;;;;12.73;4.60;;;;;;;;;;7379420;19;20014;-74
2022/12/28 11:23:17;;;;;;;4.20;2.22;;;;;;;;;;7382461;19;20005;-74
2022/12/28 11:25:42;;;;;;;5.40;1.85;;;;;;;;;;7390560;19;20002;-76
2022/12/28 11:28:15;;;;;;;3.63;1.90;;;;;;;;;;7388229;19;20372;-76
2022/12/28 11:30:41;;;;;;;5.45;2.22;;;;;;;;;;7388550;19;19998;-76
2022/12/28 11:33:20;;;;;;;10.27;2.42;;;;;;;;;;7389261;19;19995;-76
2022/12/28 11:35:48;;;;;;;5.43;2.30;;;;;;;;;;7388821;19;19999;-75
2022/12/28 11:38:38;;;;;;;3.60;2.35;;;;;;;;;;7389047;19;19998;-75
2022/12/28 11:41:04;;;;;;;4.22;2.00;;;;;;;;;;7389775;19;20543;-75
2022/12/28 11:43:29;;;;;;;5.07;2.25;;;;;;;;;;7386992;19;20123;-77
2022/12/28 11:46:03;;;;;;;5.30;2.00;;;;;;;;;;7388314;19;20010;-75
2022/12/28 11:48:40;;;;;;;3.60;1.85;;;;;;;;;;7390345;19;19998;-75
2022/12/28 11:51:20;;;;;;;2.67;1.70;;;;;;;;;;7389384;19;20022;-75
2022/12/28 11:53:45;;;;;;;4.95;1.73;;;;;;;;;;7384890;19;20011;-76
2022/12/28 11:56:15;;;;;;;6.47;1.88;;;;;;;;;;7379617;19;20006;-76
2022/12/28 11:58:43;;;;;;;3.83;1.70;;;;;;;;;;7377763;19;20070;-75
2022/12/28 12:01:28;;;;;;;5.55;1.80;;;;;;;;;;7386851;19;20310;-75
2022/12/28 12:03:56;;;;;;;6.82;2.10;;;;;;;;;;7385671;19;20436;-75
2022/12/28 12:06:50;;;;;;;3.17;1.70;;;;;;;;;;7389440;19;19998;-76
2022/12/28 12:09:28;;;;;;;4.28;1.75;;;;;;;;;;7389080;19;20002;-76
2022/12/28 12:12:04;;;;;;;3.45;1.80;;;;;;;;;;7385889;19;20376;-75
2022/12/28 12:14:32;;;;;;;4.57;1.85;;;;;;;;;;7386249;19;20071;-75
2022/12/28 12:17:25;;;;;;;5.57;1.85;;;;;;;;;;7389509;19;20075;-75
2022/12/28 12:19:57;;;;;;;4.13;1.70;;;;;;;;;;7385821;19;20531;-75
2022/12/28 12:22:33;;;;;;;4.28;1.70;;;;;;;;;;7383893;19;20002;-75
2022/12/28 12:25:27;;;;;;;4.88;1.80;;;;;;;;;;7390418;19;20003;-77
2022/12/28 12:27:57;;;;;;;4.53;1.67;;;;;;;;;;7387904;19;19995;-74
2022/12/28 12:30:23;;;;;;;4.63;1.58;;;;;;;;;;7391610;19;20505;-75
2022/12/28 12:32:58;;;;;;;4.32;1.80;;;;;;;;;;7382018;19;20002;-75
2022/12/28 12:35:29;;;;;;;2.25;1.42;;;;;;;;;;7390613;19;20022;-75
2022/12/28 12:37:58;;;;;;;3.45;1.50;;;;;;;;;;7391232;19;20026;-76
2022/12/28 12:40:41;;;;;;;7.35;2.00;;;;;;;;;;7398662;19;20010;-74
2022/12/28 12:43:45;;;;;;;3.03;1.80;;;;;;;;;;7393023;19;20015;-74
2022/12/28 12:46:29;;;;;;;2.45;1.42;;;;;;;;;;7397470;19;20138;-75
2022/12/28 12:49:22;;;;;;;2.20;1.27;;;;;;;;;;7393847;19;20006;-73
2022/12/28 12:52:00;;;;;;;3.42;1.75;;;;;;;;;;7392015;19;20018;-75
2022/12/28 12:54:43;;;;;;;5.43;2.03;;;;;;;;;;7385477;19;20028;-72
2022/12/28 12:57:23;;;;;;;4.25;1.90;;;;;;;;;;7386205;19;20003;-72
2022/12/28 13:00:04;;;;;;;5.28;2.10;;;;;;;;;;7387292;19;20014;-73
2022/12/28 13:02:57;;;;;;;3.15;1.92;;;;;;;;;;7388623;19;20031;-73
2022/12/28 13:05:25;;;;;;;2.15;1.45;;;;;;;;;;7387890;19;20345;-71
2022/12/28 13:07:55;;;;;;;3.15;1.58;;;;;;;;;;7392454;19;20021;-74
2022/12/28 13:10:33;;;;;;;3.67;1.60;;;;;;;;;;7385088;19;20010;-73
2022/12/28 13:13:00;;;;;;;3.03;1.60;;;;;;;;;;7386470;19;20006;-72
2022/12/28 13:15:26;;;;;;;3.58;1.80;;;;;;;;;;7390871;19;20374;-73
2022/12/28 13:18:00;;;;;;;4.13;1.73;;;;;;;;;;7391643;19;20010;-73
2022/12/28 13:20:26;;;;;;;5.75;2.33;;;;;;;;;;7389694;19;20023;-72
2022/12/28 13:22:51;;;;;;;4.72;1.70;;;;;;;;;;7387316;19;20550;-73
2022/12/28 13:25:27;;;;;;;2.13;1.50;;;;;;;;;;7388587;19;19998;-71
2022/12/28 13:27:53;;;;;;;5.07;2.00;;;;;;;;;;7388828;19;20456;-73
2022/12/28 13:30:21;;;;;;;6.20;2.10;;;;;;;;;;7389192;19;20010;-73
2022/12/28 13:32:55;;;;;;;3.80;1.90;;;;;;;;;;7385710;19;20096;-73
2022/12/28 13:35:24;;;;;;;5.22;2.00;;;;;;;;;;7388182;19;19999;-73
2022/12/28 13:38:25;;;;;;;2.38;1.65;;;;;;;;;;7390017;19;20062;-72
2022/12/28 13:40:52;;;;;;;4.97;2.30;;;;;;;;;;7386482;19;19998;-73
2022/12/28 13:43:51;;;;;;;5.53;2.25;;;;;;;;;;7385735;19;20023;-74
2022/12/28 13:46:19;;;;;;;3.78;1.98;;;;;;;;;;7387737;19;20439;-75
2022/12/28 13:48:49;;;;;;;3.97;2.20;;;;;;;;;;7391369;19;20011;-73
2022/12/28 13:51:16;;;;;;;3.45;1.77;;;;;;;;;;7386551;19;20010;-72
2022/12/28 13:53:46;;;;;;;5.05;2.05;;;;;;;;;;7388977;19;20026;-74
2022/12/28 13:56:15;;;;;;;3.55;1.80;;;;;;;;;;7389916;19;20436;-73
2022/12/28 13:58:47;;;;;;;3.42;1.75;;;;;;;;;;7383119;19;19999;-73
2022/12/28 14:01:18;;;;;;;4.93;1.70;;;;;;;;;;7387770;19;19995;-73
2022/12/28 14:03:44;;;;;;;4.07;1.58;;;;;;;;;;7383433;19;20142;-72
2022/12/28 14:06:14;;;;;;;4.00;1.70;;;;;;;;;;7389218;19;20010;-74
2022/12/28 14:08:40;;;;;;;4.20;1.90;;;;;;;;;;7387820;19;20404;-72
2022/12/28 14:11:07;;;;;;;3.92;2.00;;;;;;;;;;7389464;19;20010;-73
2022/12/28 14:13:34;;;;;;;5.70;2.10;;;;;;;;;;7387570;19;20559;-72
2022/12/28 14:16:01;;;;;;;4.70;2.28;;;;;;;;;;7390973;19;19994;-75
2022/12/28 14:18:29;;;;;;;4.95;2.03;;;;;;;;;;7387675;19;20071;-74
2022/12/28 14:20:56;;;;;;;4.25;1.98;;;;;;;;;;7389438;19;20018;-74
2022/12/28 14:23:24;;;;;;;4.32;2.33;;;;;;;;;;7387716;19;20030;-75
2022/12/28 14:25:56;;;;;;;4.70;1.92;;;;;;;;;;7389803;19;20110;-75
2022/12/28 14:28:33;;;;;;;6.30;2.33;;;;;;;;;;7388222;19;20001;-72
2022/12/28 14:30:58;;;;;;;4.00;1.92;;;;;;;;;;7389437;19;20543;-74
2022/12/28 14:33:26;;;;;;;4.95;1.83;;;;;;;;;;7385989;19;20011;-74
2022/12/28 14:35:57;;;;;;;3.58;1.83;;;;;;;;;;7387654;19;20006;-74
2022/12/28 14:38:26;;;;;;;;;;;;;;;;;;7388460;19;20082;-73
2022/12/28 14:40:54;;;;;;;4.82;2.30;;;;;;;;;;7387728;19;20340;-74
2022/12/28 14:43:25;;;;;;;3.63;1.80;;;;;;;;;;7386112;19;20007;-74
2022/12/28 14:45:51;;;;;;;5.22;2.00;;;;;;;;;;7388754;19;19994;-75
2022/12/28 14:48:22;;;;;;;5.00;1.80;;;;;;;;;;7385805;19;20027;-73
2022/12/28 14:50:58;;;;;;;5.23;2.37;;;;;;;;;;7389522;19;20058;-73
2022/12/28 14:53:23;;;;;;;5.13;2.00;;;;;;;;;;7384485;19;20460;-75
2022/12/28 14:55:54;;;;;;;4.15;1.92;;;;;;;;;;7389336;19;20058;-74
2022/12/28 14:58:24;;;;;;;5.15;1.98;;;;;;;;;;7388008;19;19998;-74
2022/12/28 15:00:59;;;;;;;4.18;1.75;;;;;;;;;;7387644;19;19999;-75
2022/12/28 15:03:29;;;;;;;3.00;1.73;;;;;;;;;;7382974;19;20010;-72
2022/12/28 15:05:57;;;;;;;5.45;1.90;;;;;;;;;;7387158;19;20002;-74
2022/12/28 15:08:23;;;;;;;2.03;1.55;;;;;;;;;;7386225;19;20002;-73
2022/12/28 15:10:50;;;;;;;3.03;1.70;;;;;;;;;;7388134;19;20003;-73
2022/12/28 15:13:16;;;;;;;4.93;2.10;;;;;;;;;;7385585;19;20023;-71
2022/12/28 15:15:42;;;;;;;5.15;1.83;;;;;;;;;;7387598;19;20464;-73
2022/12/28 15:18:07;;;;;;;2.17;1.60;;;;;;;;;;7385284;19;20014;-73
2022/12/28 15:20:35;;;;;;;4.18;1.77;;;;;;;;;;7388727;19;20026;-74